Terminal Aerodrome Forecast
Issued by NWS

Home | Current Version | Previous Version | Text Only | Print | Product List | Glossary On
Versions: 1 2 3 4 5 6 7 8 9 10 11 12 13 14
000
FTUS46 KSEW 270520
TAFBFI
TAF
KBFI 270520Z 2706/2806 20008KT P6SM VCSH OVC045
      TEMPO 2706/2708 36005KT P6SM -SHRA BKN030 OVC040
     FM270800 17008KT P6SM VCSH BKN030 OVC040
     FM272100 20010KT P6SM VCSH BKN040=

USA.gov is the U.S. government's official web portal to all federal, state and local government web resources and services.